(706) 295-7835

For Pilots

METAR

KRMG 161353Z AUTO 00000KT 10SM CLR 00/M02 A3023 RMK AO2 SLP238 T00001022

Location & Communications

Get detailed information about the airport, provided by AirNav.

Pilot Services

We have fuel services, on-site repair and maintenance, 24-hour security and more.

Fuel Points

Russell Regional Airport is a Shell Aviation merchant and is proud to participate in the Shell Aero Class Rewards program!

Today's Fuel Prices

Jet A $4.98 / gallon
AvGas (100LL) $5.57 / gallon
Self Serve AvGas $5.07 / gallon
Learn about fuel points program